Nearby METAR Reports

 

KMTN - Baltimore/Martin, Maryland, USA
Distance from station: SSE 8mi, 13km
Updated: Fri, 24-Oct-2014 3:33am EDT
Mostly cloudy
Mostly cloudy
 Wind from calm
Wind: Calm
Temperature: 55°F , 13°C
Dew Point: 43°F , 6°C
Humidity: 63%
Barometer: 29.89 inHg , 1012.2 hPa
Clouds: Mostly cloudy
Visibility: 10 miles , 16 km
Cloud details: Mostly cloudy 4600 ft
2014/10/24 07:33 KMTN 240733Z AUTO 00000KT 10SM BKN046 13/06 A2989 RMK AO2
KDMH - Baltimore/Dwntwn, Maryland, USA
Distance from station: SW 12mi, 19km
Updated: Fri, 24-Oct-2014 2:54am EDT

 
Temperature: 57°F , 14°C
Dew Point: 39°F , 4°C
Humidity: 51%
Barometer: 29.88 inHg , 1011.9 hPa
2014/10/24 06:54 KDMH 240654Z AUTO 14/04 A2988 RMK AO1 SLP118 T01390039
 
KBWI - Balto/Wash Intl, Maryland, USA
Distance from station: SSW 20mi, 33km
Updated: Fri, 24-Oct-2014 2:54am EDT
Few Clouds
Few Clouds
 Wind from W
Wind: W 12 mph , 19 km/h
Temperature: 54°F , 12°C
Dew Point: 39°F , 4°C
Humidity: 58%
Barometer: 29.88 inHg , 1011.9 hPa
Clouds: Few Clouds
Visibility: 10 miles , 16 km
Cloud details: Few Clouds 4500 ft
2014/10/24 06:54 KBWI 240654Z 28010KT 10SM FEW045 12/04 A2988 RMK AO2 SLP118 T01220044
KDMW - Carroll Cnty, Maryland, USA
Distance from station: WNW 30mi, 48km
Updated: Fri, 24-Oct-2014 3:35am EDT
Overcast
Overcast
 Wind from WNW
Wind: WNW 12 mph , 19 km/h, Gust: 18 mph , 30 km/h
Temperature: 54°F , 12°C
Dew Point: 43°F , 6°C
Humidity: 67%
Barometer: 29.91 inHg , 1012.9 hPa
Clouds: Overcast
Visibility: 10 miles , 16 km
Cloud details: Overcast 3800 ft
2014/10/24 07:35 KDMW 240735Z AUTO 30010G16KT 10SM OVC038 12/06 A2991 RMK AO2
 
KNAK - Annapolis/Naval, Maryland, USA
Distance from station: S 30mi, 48km
Updated: Fri, 24-Oct-2014 2:54am EDT
Clear
Clear
 Wind from WNW
Wind: WNW 7 mph , 11 km/h
Temperature: 57°F , 14°C
Dew Point: 41°F , 5°C
Humidity: 55%
Barometer: 29.88 inHg , 1011.9 hPa
Clouds: Clear
Visibility: 10 miles , 16 km
2014/10/24 06:54 KNAK 240654Z AUTO 30006KT 10SM CLR 14/05 A2988 RMK AO2 SLP121 T01390050
KW29 - Stevensville, Maryland, USA
Distance from station: SSE 31mi, 50km
Updated: Fri, 24-Oct-2014 3:36am EDT

 Wind from WNW
Wind: WNW 15 mph , 24 km/h, Gust: 18 mph , 30 km/h
Temperature: 55°F , 13°C
Dew Point: 41°F , 5°C
Humidity: 59%
Barometer: 29.89 inHg , 1012.2 hPa
Visibility: 10 miles , 16 km
2014/10/24 07:36 KW29 240736Z AUTO 29013G16KT 10SM 13/05 A2989 RMK AO1
 
KCGS - College Park, Maryland, USA
Distance from station: SW 38mi, 61km
Updated: Fri, 24-Oct-2014 3:35am EDT
Clear
Clear
 Wind from NW
Wind: NW 7 mph , 11 km/h
Temperature: 55°F , 13°C
Dew Point: 41°F , 5°C
Humidity: 59%
Barometer: 29.91 inHg , 1012.9 hPa
Clouds: Clear
Visibility: 10 miles , 16 km
2014/10/24 07:35 KCGS 240735Z AUTO 31006KT 10SM CLR 13/05 A2991 RMK AO1
KGAI - Gaithersburg, Maryland, USA
Distance from station: WSW 40mi, 65km
Updated: Fri, 24-Oct-2014 3:35am EDT
Clear
Clear
 Wind from NW
Wind: NW 8 mph , 13 km/h, Gust: 18 mph , 30 km/h
Temperature: 52°F , 11°C
Dew Point: 39°F , 4°C
Humidity: 62%
Barometer: 29.95 inHg , 1014.2 hPa
Clouds: Clear
Visibility: 10 miles , 16 km
2014/10/24 07:35 KGAI 240735Z 31007G16KT 300V010 10SM CLR 11/04 A2995 RMK AO1
 
KTHV - York, Pennsylvania, USA
Distance from station: NNW 40mi, 65km
Updated: Fri, 24-Oct-2014 2:53am EDT
Clear
Clear
 Wind from NW
Wind: NW 10 mph , 17 km/h
Temperature: 54°F , 12°C
Dew Point: 41°F , 5°C
Humidity: 63%
Barometer: 29.89 inHg , 1012.2 hPa
Clouds: Clear
Visibility: 10 miles , 16 km
2014/10/24 06:53 KTHV 240653Z AUTO 31009KT 10SM CLR 12/05 A2989 RMK AO2 SLP125 T01220050
KFDK - Frederick, Maryland, USA
Distance from station: W 47mi, 75km
Updated: Fri, 24-Oct-2014 3:35am EDT
Clear
Clear
 Wind from NNW
Wind: NNW 6 mph , 9 km/h
Temperature: 55°F , 13°C
Dew Point: 41°F , 5°C
Humidity: 59%
Barometer: 29.97 inHg , 1014.9 hPa
Clouds: Clear
Visibility: 10 miles , 16 km
2014/10/24 07:35 KFDK 240735Z AUTO 34005KT 10SM CLR 13/05 A2997 RMK AO2
 
KESN - Easton/Newnam, Maryland, USA
Distance from station: SSE 48mi, 78km
Updated: Fri, 24-Oct-2014 3:49am EDT
Overcast
Overcast
 Wind from NNW
Wind: NNW 13 mph , 20 km/h, Gust: 18 mph , 30 km/h
Temperature: 59°F , 15°C
Dew Point: 46°F , 8°C
Humidity: 63%
Barometer: 29.90 inHg , 1012.5 hPa
Clouds: Overcast
Visibility: 10 miles , 16 km
Cloud details: Overcast 5000 ft
2014/10/24 07:49 KESN 240749Z AUTO 33011G16KT 10SM OVC050 15/08 A2990 RMK AO2 T01450076
KDCA - Washington/Natl, Washington D.c., USA
Distance from station: SW 49mi, 79km
Updated: Fri, 24-Oct-2014 2:52am EDT
Clear
Clear
 Wind from NW
Wind: NW 13 mph , 20 km/h
Temperature: 59°F , 15°C
Dew Point: 39°F , 4°C
Humidity: 48%
Barometer: 29.93 inHg , 1013.5 hPa
Clouds: Clear
Visibility: 10 miles , 16 km
2014/10/24 06:52 KDCA 240652Z 31011KT 10SM CLR 15/04 A2993 RMK AO2 SLP134 T01500039 $
 
KLNS - Lancaster, Pennsylvania, USA
Distance from station: N 49mi, 79km
Updated: Fri, 24-Oct-2014 2:53am EDT
Overcast
Overcast
 Wind from NW
Wind: NW 10 mph , 17 km/h
Temperature: 57°F , 14°C
Dew Point: 43°F , 6°C
Humidity: 59%
Barometer: 29.87 inHg , 1011.5 hPa
Clouds: Overcast
Visibility: 10 miles , 16 km
Cloud details: Overcast 3700 ft
2014/10/24 06:53 KLNS 240653Z AUTO 32009KT 10SM OVC037 14/06 A2987 RMK AO2 SLP115 T01390056
KILG - Wilmington, Delaware, USA
Distance from station: ENE 50mi, 81km
Updated: Fri, 24-Oct-2014 2:51am EDT
Overcast
Overcast
 Wind from NNW
Wind: NNW 12 mph , 19 km/h
Temperature: 57°F , 14°C
Dew Point: 45°F , 7°C
Humidity: 63%
Barometer: 29.85 inHg , 1010.8 hPa
Clouds: Overcast
Visibility: 10 miles , 16 km
Cloud details: Overcast 3600 ft
2014/10/24 06:51 KILG 240651Z 33010KT 10SM OVC036 14/07 A2985 RMK AO2 SLP107 T01390072